createdAt,value
2022-09-10T00:00:43.639Z,21.94
2022-09-10T00:04:13.084Z,21.85
2022-09-10T00:07:34.639Z,21.91
2022-09-10T00:10:57.681Z,22.01
2022-09-10T00:14:23.304Z,22.04
2022-09-10T00:17:44.836Z,22.11
2022-09-10T00:21:11.932Z,21.98
2022-09-10T00:24:35.522Z,22.12
2022-09-10T00:28:00.189Z,22.05
2022-09-10T00:31:23.456Z,22.06
2022-09-10T00:34:45.090Z,22.00
2022-09-10T00:38:07.859Z,21.39
2022-09-10T00:41:29.766Z,21.26
2022-09-10T00:45:02.872Z,21.06
2022-09-10T00:48:36.150Z,21.02
2022-09-10T00:51:58.197Z,20.89
2022-09-10T00:55:21.572Z,20.85
2022-09-10T00:58:46.697Z,20.72
2022-09-10T01:02:08.829Z,20.94
2022-09-10T01:05:30.373Z,21.06
2022-09-10T01:08:52.489Z,21.23
2022-09-10T01:12:35.838Z,21.35
2022-09-10T01:16:34.642Z,21.42
2022-09-10T01:20:29.636Z,21.19
2022-09-10T01:24:12.700Z,21.19
2022-09-10T01:27:34.335Z,21.29
2022-09-10T01:31:11.435Z,21.39
2022-09-10T01:34:46.274Z,21.46
2022-09-10T01:38:15.716Z,21.29
2022-09-10T01:41:37.963Z,21.15
2022-09-10T01:44:59.906Z,21.22
2022-09-10T01:48:39.953Z,21.25
2022-09-10T01:52:16.110Z,21.29
2022-09-10T01:56:12.692Z,21.22
2022-09-10T02:00:00.024Z,21.26
2022-09-10T02:03:26.188Z,21.10
2022-09-10T02:06:50.188Z,21.09
2022-09-10T02:10:12.753Z,21.12
2022-09-10T02:13:37.856Z,21.09
2022-09-10T02:17:00.827Z,21.16
2022-09-10T02:20:23.897Z,21.03
2022-09-10T02:23:53.728Z,20.70
2022-09-10T02:27:17.952Z,20.39
2022-09-10T02:30:39.640Z,20.52
2022-09-10T02:34:03.207Z,20.64
2022-09-10T02:37:25.126Z,20.65
2022-09-10T02:40:51.619Z,20.63
2022-09-10T02:44:13.226Z,20.47
2022-09-10T02:47:39.206Z,20.61
2022-09-10T02:51:03.689Z,20.29
2022-09-10T02:54:25.211Z,20.40
2022-09-10T02:57:46.873Z,20.43
2022-09-10T03:01:14.747Z,20.37
2022-09-10T03:04:36.372Z,20.22
2022-09-10T03:07:57.910Z,19.74
2022-09-10T03:11:19.649Z,19.20
2022-09-10T03:14:41.398Z,18.68
2022-09-10T03:18:02.944Z,18.68
2022-09-10T03:21:27.052Z,18.80
2022-09-10T03:24:48.551Z,19.03
2022-09-10T03:28:13.278Z,19.38
2022-09-10T03:31:35.606Z,19.58
2022-09-10T03:34:57.168Z,19.69
2022-09-10T03:38:21.245Z,19.78
2022-09-10T03:41:42.945Z,19.66
2022-09-10T03:45:09.703Z,19.72
2022-09-10T03:48:31.340Z,19.66
2022-09-10T03:51:53.567Z,19.72
2022-09-10T03:55:18.000Z,19.72
2022-09-10T03:58:39.646Z,19.68
2022-09-10T04:02:04.787Z,19.64
2022-09-10T04:05:27.574Z,19.71
2022-09-10T04:08:50.279Z,19.78
2022-09-10T04:12:11.978Z,19.31
2022-09-10T04:15:37.277Z,19.26
2022-09-10T04:18:58.866Z,19.13
2022-09-10T04:22:20.507Z,19.50
2022-09-10T04:25:46.854Z,19.65
2022-09-10T04:29:13.596Z,19.50
2022-09-10T04:32:35.107Z,19.64
2022-09-10T04:36:01.026Z,19.39
2022-09-10T04:39:26.080Z,19.21
2022-09-10T04:42:47.825Z,18.97
2022-09-10T04:46:11.715Z,19.06
2022-09-10T04:49:33.463Z,19.26
2022-09-10T04:52:54.986Z,19.14
2022-09-10T04:56:20.047Z,19.00
2022-09-10T04:59:41.761Z,18.90
2022-09-10T05:03:05.271Z,18.90
2022-09-10T05:06:29.881Z,19.23
2022-09-10T05:09:51.795Z,19.31
2022-09-10T05:13:13.508Z,19.37
2022-09-10T05:16:36.578Z,19.48
2022-09-10T05:19:58.159Z,19.14
2022-09-10T05:23:20.156Z,19.14
2022-09-10T05:26:42.003Z,19.23
2022-09-10T05:30:05.115Z,19.00
2022-09-10T05:33:26.623Z,18.79
2022-09-10T05:36:50.435Z,18.86
2022-09-10T05:40:18.858Z,18.97
2022-09-10T05:43:42.278Z,18.76
2022-09-10T05:47:04.150Z,18.62
2022-09-10T05:50:28.512Z,18.97
2022-09-10T05:53:50.035Z,19.18
2022-09-10T05:57:11.724Z,19.45
2022-09-10T06:00:44.001Z,19.54
2022-09-10T06:04:05.588Z,19.74
2022-09-10T06:07:31.176Z,19.64
2022-09-10T06:11:05.177Z,19.72
2022-09-10T06:14:29.129Z,19.79
2022-09-10T06:17:50.735Z,19.58
2022-09-10T06:21:15.342Z,19.45
2022-09-10T06:24:38.139Z,19.55
2022-09-10T06:28:01.791Z,19.50
2022-09-10T06:31:23.643Z,19.51
2022-09-10T06:34:45.175Z,19.95
2022-09-10T06:38:06.966Z,20.14
2022-09-10T06:41:33.454Z,20.41
2022-09-10T06:44:55.274Z,20.47
2022-09-10T06:48:38.234Z,20.44
2022-09-10T06:52:02.530Z,20.52
2022-09-10T06:55:26.502Z,20.48
2022-09-10T06:58:50.327Z,20.40
2022-09-10T07:02:12.802Z,20.22
2022-09-10T07:05:39.891Z,20.40
2022-09-10T07:09:02.121Z,20.55
2022-09-10T07:12:23.735Z,20.33
2022-09-10T07:15:46.922Z,19.93
2022-09-10T07:19:08.730Z,19.89
2022-09-10T07:22:30.228Z,19.95
2022-09-10T07:25:54.589Z,19.99
2022-09-10T07:29:18.326Z,20.02
2022-09-10T07:32:43.319Z,20.17
2022-09-10T07:36:06.450Z,20.06
2022-09-10T07:39:27.988Z,20.10
2022-09-10T07:42:55.604Z,19.90
2022-09-10T07:46:21.291Z,19.81
2022-09-10T07:49:45.078Z,19.31
2022-09-10T07:53:09.072Z,18.85
2022-09-10T07:56:37.873Z,19.06
2022-09-10T08:00:02.076Z,19.10
2022-09-10T08:03:23.572Z,19.13
2022-09-10T08:06:45.279Z,18.86
2022-09-10T08:10:09.710Z,18.65
2022-09-10T08:13:32.481Z,18.49
2022-09-10T08:16:56.633Z,18.79
2022-09-10T08:20:20.377Z,19.18
2022-09-10T08:23:43.738Z,19.39
2022-09-10T08:27:06.654Z,19.37
2022-09-10T08:30:28.908Z,19.53
2022-09-10T08:33:52.802Z,19.82
2022-09-10T08:37:14.741Z,20.09
2022-09-10T08:40:42.302Z,20.60
2022-09-10T08:44:49.934Z,20.99
2022-09-10T08:48:19.463Z,21.00
2022-09-10T08:52:03.305Z,21.20
2022-09-10T08:55:29.839Z,21.18
2022-09-10T08:59:17.205Z,21.33
2022-09-10T09:03:15.028Z,21.61
2022-09-10T09:06:42.811Z,21.30
2022-09-10T09:10:14.297Z,21.22
2022-09-10T09:14:05.412Z,21.45
2022-09-10T09:17:55.114Z,21.67
2022-09-10T09:21:49.031Z,21.54
2022-09-10T09:25:47.197Z,21.35
2022-09-10T09:29:24.792Z,21.25
2022-09-10T09:32:47.884Z,21.22
2022-09-10T09:36:16.144Z,21.33
2022-09-10T09:40:12.624Z,20.94
2022-09-10T09:43:40.859Z,21.13
2022-09-10T09:47:02.642Z,21.25
2022-09-10T09:50:24.187Z,21.03
2022-09-10T09:53:56.891Z,21.32
2022-09-10T09:57:29.296Z,21.47
2022-09-10T10:00:54.849Z,21.58
2022-09-10T10:04:30.992Z,21.81
2022-09-10T10:07:53.158Z,21.94
2022-09-10T10:11:22.532Z,21.94
2022-09-10T10:14:44.423Z,22.05
2022-09-10T10:18:31.726Z,22.25
2022-09-10T10:21:56.035Z,22.49
2022-09-10T10:25:51.836Z,22.36
2022-09-10T10:29:20.668Z,22.60
2022-09-10T10:32:58.709Z,22.64
2022-09-10T10:36:46.178Z,22.48
2022-09-10T10:40:14.209Z,22.79
2022-09-10T10:43:57.380Z,22.96
2022-09-10T10:47:33.131Z,24.18
2022-09-10T10:51:24.325Z,25.05
2022-09-10T10:55:14.573Z,25.80
2022-09-10T10:58:57.352Z,26.61
2022-09-10T11:02:45.045Z,27.42
2022-09-10T11:06:16.842Z,28.11
2022-09-10T11:09:51.797Z,28.39
2022-09-10T11:13:22.260Z,27.76
2022-09-10T11:16:58.529Z,27.28
2022-09-10T11:20:30.090Z,26.74
2022-09-10T11:24:11.989Z,27.26
2022-09-10T11:27:46.221Z,26.97
2022-09-10T11:31:35.213Z,26.44
2022-09-10T11:35:24.675Z,26.43
2022-09-10T11:39:05.232Z,26.60
2022-09-10T11:42:44.301Z,27.11
2022-09-10T11:46:11.709Z,27.12
2022-09-10T11:49:49.123Z,27.60
2022-09-10T11:53:20.769Z,27.15
2022-09-10T11:57:05.470Z,27.05
2022-09-10T12:00:30.530Z,27.87
2022-09-10T12:04:10.015Z,27.91
2022-09-10T12:07:49.843Z,28.44
2022-09-10T12:11:20.743Z,28.86
2022-09-10T12:14:45.802Z,28.69
2022-09-10T12:18:18.703Z,27.97
2022-09-10T12:21:49.493Z,27.02
2022-09-10T12:25:18.455Z,27.31
2022-09-10T12:28:45.718Z,27.25
2022-09-10T12:32:19.294Z,26.90
2022-09-10T12:35:48.902Z,26.74
2022-09-10T12:39:29.262Z,26.58
2022-09-10T12:42:51.073Z,26.54
2022-09-10T12:46:13.351Z,26.16
2022-09-10T12:49:43.307Z,26.06
2022-09-10T12:53:17.727Z,25.60
2022-09-10T12:56:52.775Z,25.71
2022-09-10T13:00:22.524Z,26.02
2022-09-10T13:03:54.999Z,26.13
2022-09-10T13:07:56.590Z,26.22
2022-09-10T13:11:23.582Z,26.08
2022-09-10T13:14:49.011Z,26.03
2022-09-10T13:18:25.562Z,25.89
2022-09-10T13:21:48.127Z,26.19
2022-09-10T13:25:34.854Z,26.22
2022-09-10T13:28:58.808Z,25.95
2022-09-10T13:32:35.503Z,25.62
2022-09-10T13:36:05.548Z,25.75
2022-09-10T13:39:42.463Z,25.75
2022-09-10T13:43:23.940Z,25.55
2022-09-10T13:46:53.921Z,25.43
2022-09-10T13:50:26.136Z,25.26
2022-09-10T13:53:49.134Z,25.38
2022-09-10T13:57:21.348Z,25.65
2022-09-10T14:01:07.416Z,25.77
2022-09-10T14:04:44.791Z,25.95
2022-09-10T14:08:18.611Z,25.92
2022-09-10T14:11:42.635Z,25.77
2022-09-10T14:15:15.720Z,25.81
2022-09-10T14:18:43.939Z,25.81
2022-09-10T14:22:12.104Z,25.61
2022-09-10T14:25:42.551Z,25.67
2022-09-10T14:29:24.679Z,25.89
2022-09-10T14:32:48.975Z,25.88
2022-09-10T14:36:23.603Z,25.98
2022-09-10T14:39:51.733Z,25.88
2022-09-10T14:43:29.320Z,25.71
2022-09-10T14:46:59.361Z,25.58
2022-09-10T14:50:34.765Z,25.51
2022-09-10T14:54:01.826Z,25.60
2022-09-10T14:57:28.168Z,25.61
2022-09-10T15:00:51.837Z,25.55
2022-09-10T15:04:15.844Z,25.45
2022-09-10T15:07:40.019Z,25.43
2022-09-10T15:11:06.627Z,25.34
2022-09-10T15:14:28.900Z,25.40
2022-09-10T15:17:55.143Z,25.31
2022-09-10T15:21:19.522Z,25.23
2022-09-10T15:25:08.093Z,25.20
2022-09-10T15:28:26.307Z,25.23
2022-09-10T15:31:51.160Z,24.90
2022-09-10T15:35:12.945Z,24.69
2022-09-10T15:38:34.665Z,24.72
2022-09-10T15:41:59.969Z,24.67
2022-09-10T15:45:21.554Z,24.52
2022-09-10T15:48:43.616Z,24.41
2022-09-10T15:52:05.365Z,24.42
2022-09-10T15:55:30.971Z,24.30
2022-09-10T15:58:57.369Z,24.20
2022-09-10T16:02:18.990Z,24.18
2022-09-10T16:05:42.950Z,24.01
2022-09-10T16:09:09.124Z,23.96
2022-09-10T16:12:32.433Z,23.94
2022-09-10T16:16:05.510Z,23.82
2022-09-10T16:19:27.128Z,23.77
2022-09-10T16:22:48.790Z,23.65
2022-09-10T16:26:15.865Z,23.70
2022-09-10T16:29:40.044Z,23.58
2022-09-10T16:33:01.573Z,23.62
2022-09-10T16:36:25.675Z,23.51
2022-09-10T16:39:54.999Z,23.44
2022-09-10T16:43:21.421Z,23.35
2022-09-10T16:46:43.852Z,23.14
2022-09-10T16:50:05.620Z,23.28
2022-09-10T16:53:32.025Z,23.17
2022-09-10T16:56:53.882Z,23.21
2022-09-10T17:00:16.387Z,23.27
2022-09-10T17:03:49.621Z,23.21
2022-09-10T17:07:11.190Z,23.19
2022-09-10T17:10:32.762Z,22.97
2022-09-10T17:13:57.002Z,22.76
2022-09-10T17:17:18.904Z,22.55
2022-09-10T17:20:48.293Z,22.50
2022-09-10T17:24:14.150Z,22.46
2022-09-10T17:27:35.720Z,22.42
2022-09-10T17:30:57.304Z,22.33
2022-09-10T17:34:24.463Z,22.22
2022-09-10T17:37:46.162Z,22.33
2022-09-10T17:41:09.154Z,22.28
2022-09-10T17:44:30.755Z,22.08
2022-09-10T17:47:52.290Z,21.97
2022-09-10T17:51:16.172Z,21.94
2022-09-10T17:54:39.985Z,22.01
2022-09-10T17:58:01.530Z,21.91
2022-09-10T18:01:26.209Z,21.84
2022-09-10T18:04:50.878Z,21.91
2022-09-10T18:08:13.226Z,21.70
2022-09-10T18:11:37.307Z,21.67
2022-09-10T18:15:07.939Z,21.65
2022-09-10T18:18:31.907Z,21.50
2022-09-10T18:21:53.445Z,21.39
2022-09-10T18:25:15.307Z,21.25
2022-09-10T18:28:39.061Z,21.09
2022-09-10T18:32:01.684Z,21.13
2022-09-10T18:35:23.893Z,21.19
2022-09-10T18:38:46.841Z,21.09
2022-09-10T18:42:08.987Z,20.87
2022-09-10T18:45:30.693Z,20.91
2022-09-10T18:48:53.211Z,20.70
2022-09-10T18:52:15.004Z,20.55
2022-09-10T18:55:37.714Z,20.68
2022-09-10T18:59:05.587Z,20.89
2022-09-10T19:02:30.514Z,20.85
2022-09-10T19:05:54.867Z,20.81
2022-09-10T19:09:23.928Z,20.41
2022-09-10T19:12:45.631Z,20.45
2022-09-10T19:16:12.504Z,20.43
2022-09-10T19:19:36.512Z,20.63
2022-09-10T19:22:58.435Z,20.54
2022-09-10T19:26:20.580Z,20.50
2022-09-10T19:29:42.296Z,20.34
2022-09-10T19:33:05.321Z,20.13
2022-09-10T19:36:31.686Z,20.12
2022-09-10T19:39:56.905Z,20.19
2022-09-10T19:43:21.152Z,20.12
2022-09-10T19:46:44.927Z,19.95
2022-09-10T19:50:09.114Z,19.97
2022-09-10T19:53:31.850Z,19.90
2022-09-10T19:56:56.493Z,19.74
2022-09-10T20:00:45.321Z,19.85
2022-09-10T20:04:08.795Z,19.75
2022-09-10T20:07:31.137Z,19.81
2022-09-10T20:10:52.875Z,19.85
2022-09-10T20:14:20.227Z,19.76
2022-09-10T20:17:41.773Z,19.79
2022-09-10T20:21:20.168Z,19.62
2022-09-10T20:24:45.200Z,19.69
2022-09-10T20:28:07.133Z,19.69
2022-09-10T20:31:33.460Z,19.79
2022-09-10T20:34:56.294Z,19.90
2022-09-10T20:38:22.554Z,19.85
2022-09-10T20:41:44.394Z,20.05
2022-09-10T20:45:08.611Z,20.09
2022-09-10T20:48:31.710Z,20.16
2022-09-10T20:51:56.057Z,20.06
2022-09-10T20:55:17.806Z,20.06
2022-09-10T20:58:40.362Z,20.09
2022-09-10T21:02:02.667Z,20.14
2022-09-10T21:05:28.233Z,19.89
2022-09-10T21:08:50.038Z,19.79
2022-09-10T21:12:13.138Z,19.74
2022-09-10T21:15:35.205Z,19.75
2022-09-10T21:19:09.840Z,19.83
2022-09-10T21:22:33.912Z,19.85
2022-09-10T21:25:57.787Z,19.96
2022-09-10T21:29:23.118Z,19.89
2022-09-10T21:32:45.396Z,19.99
2022-09-10T21:36:18.214Z,19.81
2022-09-10T21:39:39.783Z,19.14
2022-09-10T21:43:06.401Z,19.20
2022-09-10T21:46:34.419Z,19.30
2022-09-10T21:49:55.984Z,19.16
2022-09-10T21:53:18.516Z,19.34
2022-09-10T21:56:42.695Z,19.16
2022-09-10T22:00:06.870Z,19.17
2022-09-10T22:03:31.455Z,19.32
2022-09-10T22:06:54.363Z,19.13
2022-09-10T22:10:19.929Z,18.97
2022-09-10T22:13:43.075Z,18.80
2022-09-10T22:17:05.500Z,18.75
2022-09-10T22:20:27.136Z,18.80
2022-09-10T22:23:52.319Z,18.86
2022-09-10T22:27:14.016Z,18.77
2022-09-10T22:30:36.619Z,18.63
2022-09-10T22:34:06.650Z,18.52
2022-09-10T22:37:28.199Z,18.55
2022-09-10T22:40:51.379Z,18.42
2022-09-10T22:44:13.567Z,18.45
2022-09-10T22:47:35.275Z,18.38
2022-09-10T22:50:56.856Z,18.31
2022-09-10T22:54:21.360Z,18.49
2022-09-10T22:57:43.066Z,18.40
2022-09-10T23:01:10.207Z,18.15
2022-09-10T23:04:34.237Z,18.04
2022-09-10T23:07:55.806Z,18.05
2022-09-10T23:11:23.172Z,18.15
2022-09-10T23:14:44.868Z,18.01
2022-09-10T23:18:09.910Z,18.08
2022-09-10T23:21:33.451Z,18.28
2022-09-10T23:24:58.478Z,18.28
2022-09-10T23:28:25.800Z,18.15
2022-09-10T23:31:47.777Z,18.03
2022-09-10T23:35:10.061Z,18.00
2022-09-10T23:38:34.605Z,17.90
2022-09-10T23:41:58.333Z,17.82
2022-09-10T23:45:19.887Z,17.93
2022-09-10T23:48:45.891Z,17.87
2022-09-10T23:52:09.703Z,18.10
2022-09-10T23:55:36.178Z,18.10
2022-09-10T23:59:00.664Z,17.80
